Time;durP1;ratioP1;P1;durP2;ratioP2;P2;SDS_P1;SDS_P2;PMS_P1;PMS_P2;Temp;Humidity;BMP_temperature;BMP_pressure;BME280_temperature;BME280_humidity;BME280_pressure;Samples;Min_cycle;Max_cycle;Signal;HPM_P1;HPM_P2
2023/09/08 00:01:19;;;;;;;;;;;21.20;99.90;;;;;;4995910;28;19921;-59
2023/09/08 00:03:45;;;;;;;;;;;21.20;99.90;;;;;;4995847;28;19918;-59
2023/09/08 00:06:10;;;;;;;;;;;21.20;99.90;;;;;;4995799;28;19921;-59
2023/09/08 00:08:36;;;;;;;;;;;21.20;99.90;;;;;;4995739;28;19917;-61
2023/09/08 00:11:01;;;;;;;;;;;21.20;99.90;;;;;;4995670;28;19921;-60
2023/09/08 00:13:30;;;;;;;;;;;21.10;99.90;;;;;;4992547;28;19925;-60
2023/09/08 00:15:55;;;;;;;;;;;21.10;99.90;;;;;;4995758;28;19917;-60
2023/09/08 00:18:21;;;;;;;;;;;21.10;99.90;;;;;;4990938;28;19922;-61
2023/09/08 00:20:46;;;;;;;;;;;21.00;99.90;;;;;;4995633;28;19922;-61
2023/09/08 00:23:12;;;;;;;;;;;21.00;99.90;;;;;;4995556;28;19921;-59
2023/09/08 00:25:38;;;;;;;;;;;20.90;99.90;;;;;;4995522;28;19925;-60
2023/09/08 00:28:03;;;;;;;;;;;20.90;99.90;;;;;;4978306;28;19917;-60
2023/09/08 00:30:29;;;;;;;;;;;20.80;99.90;;;;;;4995374;28;19917;-60
2023/09/08 00:32:54;;;;;;;;;;;20.80;99.90;;;;;;4995416;28;19924;-59
2023/09/08 00:35:20;;;;;;;;;;;20.80;99.90;;;;;;4995546;28;19921;-59
2023/09/08 00:37:46;;;;;;;;;;;20.70;99.90;;;;;;4995357;28;19925;-59
2023/09/08 00:40:12;;;;;;;;;;;20.70;99.90;;;;;;4995518;28;19924;-59
2023/09/08 00:42:37;;;;;;;;;;;20.80;99.90;;;;;;4992652;28;20331;-60
2023/09/08 00:45:03;;;;;;;;;;;20.80;99.90;;;;;;4981008;28;19971;-60
2023/09/08 00:47:29;;;;;;;;;;;20.80;99.90;;;;;;4995015;28;20284;-61
2023/09/08 00:49:55;;;;;;;;;;;20.80;99.90;;;;;;4995267;28;19917;-60
2023/09/08 00:52:21;;;;;;;;;;;20.70;99.90;;;;;;4995062;28;20000;-61
2023/09/08 00:54:46;;;;;;;;;;;20.60;99.90;;;;;;4994271;28;19972;-61
2023/09/08 00:57:12;;;;;;;;;;;20.60;99.90;;;;;;4994780;28;19921;-59
2023/09/08 00:59:38;;;;;;;;;;;20.50;99.90;;;;;;4977484;28;19921;-59
2023/09/08 01:02:03;;;;;;;;;;;20.50;99.90;;;;;;4995088;28;19918;-60
2023/09/08 01:04:29;;;;;;;;;;;20.40;99.90;;;;;;4994701;28;19921;-59
2023/09/08 01:06:56;;;;;;;;;;;20.40;99.90;;;;;;4994722;28;19918;-60
2023/09/08 01:09:22;;;;;;;;;;;20.40;99.90;;;;;;4994674;28;19918;-59
2023/09/08 01:11:47;;;;;;;;;;;20.40;99.90;;;;;;4994788;28;19975;-59
2023/09/08 01:14:13;;;;;;;;;;;20.40;99.90;;;;;;4994830;28;19918;-59
2023/09/08 01:16:40;;;;;;;;;;;20.40;99.90;;;;;;4993369;28;19968;-61
2023/09/08 01:19:09;;;;;;;;;;;20.20;99.90;;;;;;4994793;28;19922;-60
2023/09/08 01:21:45;;;;;;;;;;;20.20;99.90;;;;;;4994378;28;19918;-61
2023/09/08 01:24:33;;;;;;;;;;;20.20;99.90;;;;;;4994479;28;19972;-60
2023/09/08 01:26:59;;;;;;;;;;;20.20;99.90;;;;;;4950425;29;19919;-60
2023/09/08 01:29:26;;;;;;;;;;;20.20;99.90;;;;;;4953339;28;20266;-60
2023/09/08 01:31:52;;;;;;;;;;;20.20;99.90;;;;;;4951474;29;19926;-60
2023/09/08 01:34:18;;;;;;;;;;;20.10;99.90;;;;;;4953328;29;19934;-58
2023/09/08 01:36:44;;;;;;;;;;;20.10;99.90;;;;;;4953443;29;19935;-60
2023/09/08 01:39:10;;;;;;;;;;;20.20;99.90;;;;;;4953287;29;20420;-60
2023/09/08 01:41:35;;;;;;;;;;;20.00;99.90;;;;;;4953402;29;19926;-59
2023/09/08 01:44:05;;;;;;;;;;;20.10;99.90;;;;;;4953058;29;19919;-60
2023/09/08 01:46:30;;;;;;;;;;;20.00;99.90;;;;;;4953241;29;19925;-60
2023/09/08 01:48:56;;;;;;;;;;;20.00;99.90;;;;;;4953049;29;19918;-61
2023/09/08 01:51:21;;;;;;;;;;;20.00;99.90;;;;;;4953002;29;19919;-60
2023/09/08 01:53:47;;;;;;;;;;;20.00;99.90;;;;;;4952927;29;20005;-60
2023/09/08 01:56:12;;;;;;;;;;;19.90;99.90;;;;;;4953089;29;19923;-60
2023/09/08 01:58:38;;;;;;;;;;;20.00;99.90;;;;;;4953309;29;19922;-59
2023/09/08 02:01:05;;;;;;;;;;;19.90;99.90;;;;;;4952996;29;19918;-60
2023/09/08 02:03:34;;;;;;;;;;;20.00;99.90;;;;;;4965838;28;19917;-60
2023/09/08 02:05:59;;;;;;;;;;;19.90;99.90;;;;;;5006960;28;19922;-60
2023/09/08 02:08:25;;;;;;;;;;;19.90;99.90;;;;;;5003846;28;19966;-59
2023/09/08 02:10:50;;;;;;;;;;;19.80;99.90;;;;;;5012943;28;20379;-59
2023/09/08 02:13:16;;;;;;;;;;;19.80;99.90;;;;;;5013127;28;19921;-60
2023/09/08 02:15:42;;;;;;;;;;;19.80;99.90;;;;;;5013088;28;19917;-60
2023/09/08 02:18:07;;;;;;;;;;;19.80;99.90;;;;;;5013212;28;20011;-61
2023/09/08 02:20:33;;;;;;;;;;;19.80;99.90;;;;;;5013299;28;20268;-60
2023/09/08 02:23:03;;;;;;;;;;;19.70;99.90;;;;;;5013001;28;20307;-60
2023/09/08 02:25:29;;;;;;;;;;;19.70;99.90;;;;;;5013039;28;19924;-60
2023/09/08 02:27:54;;;;;;;;;;;19.70;99.90;;;;;;5012794;28;20284;-60
2023/09/08 02:30:20;;;;;;;;;;;19.60;99.90;;;;;;5013083;28;19925;-60
2023/09/08 02:32:46;;;;;;;;;;;19.60;99.90;;;;;;5012989;28;19917;-59
2023/09/08 02:35:11;;;;;;;;;;;19.60;99.90;;;;;;5013051;28;19923;-61
2023/09/08 02:37:37;;;;;;;;;;;19.60;99.90;;;;;;5010983;28;19968;-60
2023/09/08 02:40:03;;;;;;;;;;;19.60;99.90;;;;;;5012492;28;19925;-59
2023/09/08 02:42:29;;;;;;;;;;;19.50;99.90;;;;;;5012715;28;19917;-60
2023/09/08 02:44:54;;;;;;;;;;;19.50;99.90;;;;;;5012626;28;19917;-60
2023/09/08 02:47:20;;;;;;;;;;;19.40;99.90;;;;;;5012511;28;19924;-59
2023/09/08 02:49:45;;;;;;;;;;;19.50;99.90;;;;;;5012523;28;19917;-61
2023/09/08 02:52:11;;;;;;;;;;;19.40;99.90;;;;;;5012739;28;19928;-59
2023/09/08 02:54:36;;;;;;;;;;;19.40;99.90;;;;;;5013053;28;19975;-59
2023/09/08 02:57:02;;;;;;;;;;;19.30;99.90;;;;;;5012124;28;20067;-60
2023/09/08 02:59:27;;;;;;;;;;;19.30;99.90;;;;;;5012563;28;19921;-60
2023/09/08 03:01:53;;;;;;;;;;;19.30;99.90;;;;;;5012516;28;19925;-59
2023/09/08 03:04:18;;;;;;;;;;;19.30;99.90;;;;;;5012694;28;20374;-60
2023/09/08 03:06:44;;;;;;;;;;;19.20;99.90;;;;;;5012318;28;20003;-60
2023/09/08 03:09:10;;;;;;;;;;;19.20;99.90;;;;;;5012269;28;19983;-61
2023/09/08 03:11:37;;;;;;;;;;;19.20;99.90;;;;;;5012105;28;19921;-60
2023/09/08 03:14:02;;;;;;;;;;;19.20;99.90;;;;;;5012160;28;19925;-60
2023/09/08 03:16:28;;;;;;;;;;;19.20;99.90;;;;;;5012161;28;19925;-60
2023/09/08 03:18:53;;;;;;;;;;;19.20;99.90;;;;;;5012157;28;19918;-59
2023/09/08 03:21:19;;;;;;;;;;;19.20;99.90;;;;;;5012200;28;20351;-59
2023/09/08 03:23:45;;;;;;;;;;;19.10;99.90;;;;;;4994608;28;19953;-59
2023/09/08 03:26:11;;;;;;;;;;;19.10;99.90;;;;;;5012053;28;20367;-59
2023/09/08 03:28:37;;;;;;;;;;;19.10;99.90;;;;;;5012092;28;20008;-60
2023/09/08 03:31:03;;;;;;;;;;;19.10;99.90;;;;;;5012512;28;19922;-59
2023/09/08 03:33:28;;;;;;;;;;;19.10;99.90;;;;;;4999440;28;19988;-60
2023/09/08 03:35:55;;;;;;;;;;;19.10;99.90;;;;;;4992391;28;19926;-60
2023/09/08 03:38:20;;;;;;;;;;;19.00;99.90;;;;;;4992250;28;19925;-60
2023/09/08 03:40:46;;;;;;;;;;;19.00;99.90;;;;;;4978025;28;20276;-59
2023/09/08 03:43:12;;;;;;;;;;;19.10;99.90;;;;;;5011893;28;19917;-59
2023/09/08 03:45:37;;;;;;;;;;;19.00;99.90;;;;;;5012192;28;20332;-59
2023/09/08 03:48:03;;;;;;;;;;;19.10;99.90;;;;;;5012342;28;19921;-60
2023/09/08 03:50:29;;;;;;;;;;;19.10;99.90;;;;;;5011832;28;20370;-59
2023/09/08 03:52:55;;;;;;;;;;;19.10;99.90;;;;;;5011915;28;20368;-59
2023/09/08 03:55:20;;;;;;;;;;;19.10;99.90;;;;;;5011839;28;20000;-58
2023/09/08 03:57:46;;;;;;;;;;;19.10;99.90;;;;;;5011664;28;20324;-59
2023/09/08 04:00:12;;;;;;;;;;;19.00;99.90;;;;;;5010655;28;19917;-59
2023/09/08 04:02:37;;;;;;;;;;;19.00;99.90;;;;;;5011980;28;19922;-61
2023/09/08 04:05:03;;;;;;;;;;;19.00;99.90;;;;;;5011949;28;19924;-59
2023/09/08 04:07:28;;;;;;;;;;;18.90;99.90;;;;;;5011609;28;19917;-60
2023/09/08 04:09:54;;;;;;;;;;;18.80;99.90;;;;;;5011727;28;19972;-60
2023/09/08 04:12:20;;;;;;;;;;;18.90;99.90;;;;;;5011879;28;19947;-60
2023/09/08 04:14:45;;;;;;;;;;;18.80;99.90;;;;;;5011972;28;19918;-59
2023/09/08 04:17:11;;;;;;;;;;;18.80;99.90;;;;;;5011489;28;19929;-60
2023/09/08 04:19:37;;;;;;;;;;;18.80;99.90;;;;;;4994198;28;19921;-60
2023/09/08 04:22:02;;;;;;;;;;;18.70;99.90;;;;;;4993977;28;19918;-59
2023/09/08 04:24:28;;;;;;;;;;;18.70;99.90;;;;;;5011907;28;19924;-60
2023/09/08 04:26:53;;;;;;;;;;;18.70;99.90;;;;;;5011595;28;19917;-59
2023/09/08 04:29:19;;;;;;;;;;;18.80;99.90;;;;;;5013368;28;19932;-61
2023/09/08 04:31:45;;;;;;;;;;;18.80;99.90;;;;;;5015347;28;19918;-59
2023/09/08 04:34:10;;;;;;;;;;;18.70;99.90;;;;;;5015079;28;19918;-60
2023/09/08 04:36:36;;;;;;;;;;;18.70;99.90;;;;;;5015284;28;19929;-60
2023/09/08 04:39:01;;;;;;;;;;;18.70;99.90;;;;;;5006225;28;19940;-60
2023/09/08 04:41:27;;;;;;;;;;;18.70;99.90;;;;;;5009660;28;20328;-60
2023/09/08 04:43:53;;;;;;;;;;;18.70;99.90;;;;;;5015127;28;20435;-59
2023/09/08 04:46:19;;;;;;;;;;;18.60;99.90;;;;;;5015050;28;19917;-59
2023/09/08 04:48:44;;;;;;;;;;;18.60;99.90;;;;;;5014962;28;20389;-59
2023/09/08 04:51:10;;;;;;;;;;;18.50;99.90;;;;;;5015059;28;20431;-61
2023/09/08 04:53:36;;;;;;;;;;;18.50;99.90;;;;;;5014569;28;20364;-60
2023/09/08 04:56:02;;;;;;;;;;;18.40;99.90;;;;;;4997601;28;19925;-60
2023/09/08 04:58:27;;;;;;;;;;;18.50;99.90;;;;;;4994974;28;19921;-60
2023/09/08 05:00:53;;;;;;;;;;;18.40;99.90;;;;;;4995157;28;19918;-61
2023/09/08 05:03:18;;;;;;;;;;;18.40;99.90;;;;;;4995065;28;20283;-60
2023/09/08 05:05:44;;;;;;;;;;;18.40;99.90;;;;;;4994827;28;19918;-60
2023/09/08 05:08:10;;;;;;;;;;;18.40;99.90;;;;;;4994977;28;20280;-60
2023/09/08 05:10:35;;;;;;;;;;;18.40;99.90;;;;;;4993313;28;19922;-60
2023/09/08 05:13:01;;;;;;;;;;;18.40;99.90;;;;;;4994937;28;20356;-60
2023/09/08 05:15:26;;;;;;;;;;;18.40;99.90;;;;;;4994851;28;20005;-60
2023/09/08 05:17:52;;;;;;;;;;;18.40;99.90;;;;;;4994776;28;19922;-60
2023/09/08 05:20:18;;;;;;;;;;;18.40;99.90;;;;;;4993568;28;19980;-60
2023/09/08 05:22:43;;;;;;;;;;;18.50;99.90;;;;;;4994399;28;19971;-59
2023/09/08 05:25:09;;;;;;;;;;;18.50;99.90;;;;;;4994922;28;19941;-60
2023/09/08 05:27:35;;;;;;;;;;;18.50;99.90;;;;;;4994699;28;20364;-59
2023/09/08 05:30:00;;;;;;;;;;;18.60;99.90;;;;;;4994576;28;19918;-60
2023/09/08 05:32:26;;;;;;;;;;;18.60;99.90;;;;;;4994500;28;19918;-60
2023/09/08 05:34:51;;;;;;;;;;;18.70;99.90;;;;;;4994362;28;19972;-60
2023/09/08 05:37:17;;;;;;;;;;;18.70;99.90;;;;;;4994100;28;19980;-59
2023/09/08 05:39:42;;;;;;;;;;;18.80;99.90;;;;;;4994121;28;20008;-59
2023/09/08 05:42:08;;;;;;;;;;;18.90;99.90;;;;;;5013871;28;20000;-59
2023/09/08 05:44:33;;;;;;;;;;;18.90;99.90;;;;;;5013896;28;20275;-60
2023/09/08 05:46:59;;;;;;;;;;;19.10;99.90;;;;;;5013220;28;19917;-60
2023/09/08 05:49:25;;;;;;;;;;;19.10;99.90;;;;;;4994077;28;19929;-60
2023/09/08 05:51:50;;;;;;;;;;;19.20;99.90;;;;;;4994268;28;19918;-60
2023/09/08 05:54:16;;;;;;;;;;;19.30;99.90;;;;;;4993778;28;19917;-61
2023/09/08 05:56:41;;;;;;;;;;;19.40;99.90;;;;;;4993899;28;20049;-59
2023/09/08 05:59:07;;;;;;;;;;;19.40;99.90;;;;;;4994230;28;19960;-60
2023/09/08 06:01:32;;;;;;;;;;;19.50;99.90;;;;;;4994158;28;20379;-60
2023/09/08 06:03:58;;;;;;;;;;;19.60;99.90;;;;;;4993926;28;19932;-58
2023/09/08 06:06:25;;;;;;;;;;;19.70;99.90;;;;;;4993806;28;19917;-58
2023/09/08 06:08:50;;;;;;;;;;;19.80;99.90;;;;;;4994009;28;20016;-59
2023/09/08 06:11:16;;;;;;;;;;;20.00;99.90;;;;;;4994030;28;19965;-60
2023/09/08 06:13:42;;;;;;;;;;;20.00;99.90;;;;;;4993589;28;20387;-59
2023/09/08 06:16:08;;;;;;;;;;;20.10;99.90;;;;;;4993944;28;19976;-59
2023/09/08 06:18:39;;;;;;;;;;;20.20;99.90;;;;;;4993480;28;20075;-60
2023/09/08 06:21:08;;;;;;;;;;;20.30;99.90;;;;;;4993557;28;19917;-58
2023/09/08 06:23:34;;;;;;;;;;;20.40;99.90;;;;;;4993406;28;20021;-60
2023/09/08 06:25:59;;;;;;;;;;;20.60;99.90;;;;;;4993505;28;20427;-60
2023/09/08 06:28:26;;;;;;;;;;;20.70;99.90;;;;;;4993585;28;19925;-60
2023/09/08 06:30:51;;;;;;;;;;;21.00;99.90;;;;;;4993040;28;19945;-60
2023/09/08 06:33:17;;;;;;;;;;;21.20;99.90;;;;;;4993260;28;19922;-60
2023/09/08 06:35:42;;;;;;;;;;;21.30;99.90;;;;;;4993150;28;19917;-61
2023/09/08 06:38:08;;;;;;;;;;;21.40;99.90;;;;;;4992681;28;20031;-60
2023/09/08 06:40:33;;;;;;;;;;;21.50;99.90;;;;;;4993224;28;19921;-60
2023/09/08 06:42:59;;;;;;;;;;;21.60;99.90;;;;;;4975921;28;20275;-59
2023/09/08 06:45:24;;;;;;;;;;;21.90;99.90;;;;;;4992774;28;19991;-59
2023/09/08 06:47:54;;;;;;;;;;;22.20;99.90;;;;;;4993318;28;19918;-59
2023/09/08 06:50:21;;;;;;;;;;;22.40;99.90;;;;;;4992862;28;19925;-59
2023/09/08 06:52:46;;;;;;;;;;;22.60;99.90;;;;;;4992343;28;20387;-60
2023/09/08 06:55:13;;;;;;;;;;;22.80;99.90;;;;;;4992604;28;19918;-60
2023/09/08 06:57:38;;;;;;;;;;;22.80;99.90;;;;;;4992948;28;19922;-59
2023/09/08 07:00:06;;;;;;;;;;;23.00;99.90;;;;;;4992932;28;19925;-59
2023/09/08 07:02:32;;;;;;;;;;;23.10;99.90;;;;;;4992950;28;19961;-60
2023/09/08 07:04:57;;;;;;;;;;;23.40;99.90;;;;;;4993468;28;20031;-60
2023/09/08 07:07:23;;;;;;;;;;;23.50;99.90;;;;;;4992675;28;19944;-60
2023/09/08 07:09:49;;;;;;;;;;;23.50;99.90;;;;;;4993277;28;19937;-60
2023/09/08 07:12:14;;;;;;;;;;;23.60;99.90;;;;;;4993053;28;19944;-60
2023/09/08 07:14:40;;;;;;;;;;;23.80;99.90;;;;;;4993226;28;20367;-61
2023/09/08 07:17:05;;;;;;;;;;;24.00;99.90;;;;;;4991368;28;19968;-59
2023/09/08 07:19:31;;;;;;;;;;;24.00;99.90;;;;;;4991484;28;19925;-59
2023/09/08 07:21:56;;;;;;;;;;;24.20;99.90;;;;;;4992289;28;19921;-60
2023/09/08 07:24:22;;;;;;;;;;;24.50;99.90;;;;;;4992446;28;19967;-61
2023/09/08 07:26:47;;;;;;;;;;;24.60;99.90;;;;;;4990856;28;19918;-60
2023/09/08 07:29:13;;;;;;;;;;;24.60;99.90;;;;;;4992585;28;19961;-60
2023/09/08 07:31:39;;;;;;;;;;;24.90;99.90;;;;;;4992445;28;19917;-61
2023/09/08 07:34:04;;;;;;;;;;;25.00;99.90;;;;;;4992461;28;19917;-60
2023/09/08 07:36:30;;;;;;;;;;;25.10;99.90;;;;;;4992398;28;19921;-60
2023/09/08 07:38:55;;;;;;;;;;;25.30;99.90;;;;;;4992610;28;20364;-60
2023/09/08 07:41:21;;;;;;;;;;;25.40;99.90;;;;;;5006069;28;19971;-59
2023/09/08 07:43:47;;;;;;;;;;;25.50;99.90;;;;;;5011965;28;19921;-60
2023/09/08 07:46:12;;;;;;;;;;;25.60;99.90;;;;;;5012573;28;19944;-60
2023/09/08 07:48:38;;;;;;;;;;;25.70;99.90;;;;;;5012814;28;20221;-60
2023/09/08 07:51:03;;;;;;;;;;;25.60;99.90;;;;;;5012253;28;20391;-60
2023/09/08 07:53:29;;;;;;;;;;;25.90;99.90;;;;;;5011181;28;20024;-61
2023/09/08 07:55:54;;;;;;;;;;;26.00;99.90;;;;;;5012099;28;19917;-60
2023/09/08 07:58:22;;;;;;;;;;;26.00;99.90;;;;;;5012101;28;19921;-59
2023/09/08 08:00:48;;;;;;;;;;;26.00;99.90;;;;;;5012089;28;20016;-59
2023/09/08 08:03:13;;;;;;;;;;;26.30;99.90;;;;;;5012515;28;20000;-61
2023/09/08 08:05:39;;;;;;;;;;;26.40;99.90;;;;;;5015658;28;19986;-60
2023/09/08 08:08:04;;;;;;;;;;;26.40;99.90;;;;;;5016070;28;19923;-59
2023/09/08 08:10:30;;;;;;;;;;;26.70;99.90;;;;;;5015643;28;20264;-60
2023/09/08 08:12:55;;;;;;;;;;;26.90;99.90;;;;;;5015758;28;19940;-59
2023/09/08 08:15:22;;;;;;;;;;;26.80;99.90;;;;;;4998192;28;20000;-60
2023/09/08 08:17:48;;;;;;;;;;;27.10;99.90;;;;;;5015640;28;19926;-60
2023/09/08 08:20:17;;;;;;;;;;;27.00;99.90;;;;;;5015498;28;19924;-59
2023/09/08 08:22:44;;;;;;;;;;;27.10;99.90;;;;;;5015326;28;20427;-60
2023/09/08 08:25:10;;;;;;;;;;;27.10;99.90;;;;;;5014576;28;19967;-61
2023/09/08 08:27:35;;;;;;;;;;;27.10;99.90;;;;;;5015220;28;19917;-61
2023/09/08 08:30:01;;;;;;;;;;;27.00;99.90;;;;;;5015541;28;20016;-60
2023/09/08 08:32:27;;;;;;;;;;;27.30;99.90;;;;;;5015619;28;20295;-60
2023/09/08 08:34:53;;;;;;;;;;;27.40;99.90;;;;;;5015015;28;20382;-60
2023/09/08 08:37:18;;;;;;;;;;;27.60;99.90;;;;;;5014864;28;19968;-60
2023/09/08 08:39:44;;;;;;;;;;;27.60;99.90;;;;;;5001340;28;19953;-60
2023/09/08 08:42:10;;;;;;;;;;;27.70;99.90;;;;;;5015313;28;19960;-60
2023/09/08 08:44:37;;;;;;;;;;;27.70;99.90;;;;;;5015041;28;19932;-59
2023/09/08 08:47:03;;;;;;;;;;;27.80;99.90;;;;;;5014947;28;19963;-60
2023/09/08 08:49:31;;;;;;;;;;;28.00;99.90;;;;;;5015179;28;19917;-60
2023/09/08 08:51:57;;;;;;;;;;;28.10;99.90;;;;;;5014608;28;19944;-59
2023/09/08 08:54:24;;;;;;;;;;;28.30;99.90;;;;;;5014792;28;19971;-59
2023/09/08 08:56:49;;;;;;;;;;;28.20;99.90;;;;;;5014583;28;19967;-59
2023/09/08 08:59:15;;;;;;;;;;;28.30;99.90;;;;;;5014615;28;20347;-59
2023/09/08 09:01:41;;;;;;;;;;;28.60;99.90;;;;;;5014502;28;19918;-59
2023/09/08 09:04:07;;;;;;;;;;;28.90;99.90;;;;;;5014693;28;19924;-59
2023/09/08 09:06:33;;;;;;;;;;;28.80;99.90;;;;;;5014725;28;19964;-59
2023/09/08 09:08:59;;;;;;;;;;;29.20;99.90;;;;;;5014222;28;20283;-59
2023/09/08 09:11:25;;;;;;;;;;;29.40;99.90;;;;;;5014239;28;19964;-59
2023/09/08 09:13:50;;;;;;;;;;;29.70;99.90;;;;;;5014317;28;20402;-58
2023/09/08 09:16:16;;;;;;;;;;;30.10;99.90;;;;;;5014120;28;20004;-60
2023/09/08 09:18:54;;;;;;;;;;;30.70;99.90;;;;;;5014896;28;19928;-59
2023/09/08 09:21:19;;;;;;;;;;;31.10;99.90;;;;;;4988814;28;19917;-59
2023/09/08 09:23:47;;;;;;;;;;;31.20;99.90;;;;;;5014698;28;19979;-59
2023/09/08 09:26:24;;;;;;;;;;;31.30;99.90;;;;;;5014134;28;20387;-60
2023/09/08 09:28:51;;;;;;;;;;;31.60;99.90;;;;;;5014614;28;19917;-61
2023/09/08 09:31:26;;;;;;;;;;;31.80;99.90;;;;;;5014396;28;20055;-59
2023/09/08 09:34:10;;;;;;;;;;;31.50;99.90;;;;;;5014196;28;19924;-59
2023/09/08 09:36:39;;;;;;;;;;;31.20;99.90;;;;;;5013857;28;19921;-59
2023/09/08 09:39:05;;;;;;;;;;;30.90;99.90;;;;;;5004632;28;19918;-59
2023/09/08 09:41:31;;;;;;;;;;;30.60;99.90;;;;;;5009254;28;19924;-60
2023/09/08 09:43:56;;;;;;;;;;;30.50;99.90;;;;;;5013787;28;20344;-60
2023/09/08 09:46:22;;;;;;;;;;;30.20;99.90;;;;;;5013866;28;20020;-60
2023/09/08 09:48:54;;;;;;;;;;;30.10;99.90;;;;;;5013642;28;19918;-58
2023/09/08 09:51:19;;;;;;;;;;;29.90;99.90;;;;;;5013463;28;19917;-60
2023/09/08 09:53:45;;;;;;;;;;;29.90;99.90;;;;;;5013659;28;19917;-60
2023/09/08 09:56:11;;;;;;;;;;;30.10;99.90;;;;;;5013772;28;20008;-59
2023/09/08 09:58:37;;;;;;;;;;;30.50;99.90;;;;;;5013506;28;20008;-60
2023/09/08 10:01:03;;;;;;;;;;;30.70;99.90;;;;;;5013525;28;19924;-60
2023/09/08 10:03:30;;;;;;;;;;;31.10;99.90;;;;;;5013419;28;19963;-60
2023/09/08 10:05:56;;;;;;;;;;;31.10;99.90;;;;;;5013433;28;20000;-60
2023/09/08 10:08:22;;;;;;;;;;;31.70;99.90;;;;;;4996014;28;20028;-60
2023/09/08 10:10:50;;;;;;;;;;;32.10;99.90;;;;;;5013071;28;19922;-60
2023/09/08 10:13:21;;;;;;;;;;;32.70;99.90;;;;;;5013592;28;19918;-60
2023/09/08 10:15:49;;;;;;;;;;;33.20;99.90;;;;;;5013116;28;19929;-60
2023/09/08 10:18:16;;;;;;;;;;;33.70;99.30;;;;;;5013219;28;20439;-61
2023/09/08 10:20:42;;;;;;;;;;;34.20;98.90;;;;;;5012905;28;19917;-60
2023/09/08 10:23:31;;;;;;;;;;;34.30;97.80;;;;;;5013077;28;19917;-60
2023/09/08 10:25:58;;;;;;;;;;;34.80;99.30;;;;;;5013027;28;19921;-61
2023/09/08 10:28:25;;;;;;;;;;;34.90;97.20;;;;;;5013646;28;19996;-61
2023/09/08 10:30:51;;;;;;;;;;;34.50;96.90;;;;;;5012965;28;20425;-59
2023/09/08 10:33:18;;;;;;;;;;;34.40;96.30;;;;;;5013132;28;19979;-61
2023/09/08 10:35:44;;;;;;;;;;;33.80;96.80;;;;;;5012987;28;19983;-60
2023/09/08 10:38:21;;;;;;;;;;;33.70;97.20;;;;;;5011287;28;19921;-59
2023/09/08 10:40:47;;;;;;;;;;;34.30;97.80;;;;;;5002346;28;19918;-60
2023/09/08 10:43:13;;;;;;;;;;;34.80;97.90;;;;;;5012855;28;19943;-60
2023/09/08 10:45:39;;;;;;;;;;;34.50;98.10;;;;;;5013020;28;19962;-60
2023/09/08 10:48:05;;;;;;;;;;;34.20;97.60;;;;;;5012586;28;19924;-60
2023/09/08 10:50:35;;;;;;;;;;;34.10;97.90;;;;;;5012677;28;20356;-59
2023/09/08 10:53:14;;;;;;;;;;;33.80;97.30;;;;;;5012845;28;19917;-59
2023/09/08 10:55:41;;;;;;;;;;;33.40;97.50;;;;;;5012710;28;20008;-60
2023/09/08 10:58:09;;;;;;;;;;;33.30;98.40;;;;;;5012764;28;19921;-59
2023/09/08 11:00:45;;;;;;;;;;;33.10;98.50;;;;;;5012898;28;19917;-60
2023/09/08 11:03:11;;;;;;;;;;;33.10;98.80;;;;;;5012821;28;20007;-60
2023/09/08 11:05:37;;;;;;;;;;;33.60;98.40;;;;;;5012378;28;20034;-60
2023/09/08 11:08:03;;;;;;;;;;;33.80;98.80;;;;;;5012822;28;19917;-61
2023/09/08 11:10:30;;;;;;;;;;;33.90;97.60;;;;;;5012022;28;20394;-60
2023/09/08 11:12:56;;;;;;;;;;;34.50;98.50;;;;;;5012576;28;19999;-61
2023/09/08 11:15:21;;;;;;;;;;;34.80;97.10;;;;;;5012397;28;19921;-61
2023/09/08 11:17:50;;;;;;;;;;;35.20;96.50;;;;;;5012123;28;19925;-60
2023/09/08 11:20:17;;;;;;;;;;;35.60;96.20;;;;;;5012340;28;19917;-61
2023/09/08 11:22:43;;;;;;;;;;;35.70;96.20;;;;;;5012156;28;19917;-61
2023/09/08 11:25:11;;;;;;;;;;;36.00;95.00;;;;;;5012460;28;19917;-60
2023/09/08 11:27:39;;;;;;;;;;;35.70;94.90;;;;;;5011943;28;19961;-60
2023/09/08 11:30:05;;;;;;;;;;;36.20;95.40;;;;;;4994987;28;19940;-61
2023/09/08 11:32:34;;;;;;;;;;;36.00;94.40;;;;;;5012249;28;19940;-61
2023/09/08 11:35:07;;;;;;;;;;;36.50;94.70;;;;;;5012292;28;20265;-61
2023/09/08 11:37:34;;;;;;;;;;;36.30;95.40;;;;;;5012730;28;19932;-61
2023/09/08 11:40:00;;;;;;;;;;;36.40;94.80;;;;;;5002600;28;19932;-61
2023/09/08 11:42:27;;;;;;;;;;;36.60;94.60;;;;;;5016257;28;19925;-61
2023/09/08 11:44:53;;;;;;;;;;;36.70;94.60;;;;;;5014114;28;19998;-60
2023/09/08 11:47:18;;;;;;;;;;;36.80;95.00;;;;;;5016350;28;19917;-60
2023/09/08 11:49:45;;;;;;;;;;;36.80;95.00;;;;;;5015916;28;20008;-61
2023/09/08 11:52:11;;;;;;;;;;;36.70;94.60;;;;;;5015813;28;19967;-60
2023/09/08 11:54:37;;;;;;;;;;;36.50;94.30;;;;;;5016444;28;19960;-59
2023/09/08 11:57:04;;;;;;;;;;;36.50;94.30;;;;;;5016161;28;19921;-61
2023/09/08 11:59:31;;;;;;;;;;;36.20;93.80;;;;;;5015877;28;19963;-60
2023/09/08 12:01:57;;;;;;;;;;;36.60;95.10;;;;;;5015605;28;20019;-60
2023/09/08 12:04:23;;;;;;;;;;;36.70;95.20;;;;;;5015647;28;20296;-60
2023/09/08 12:06:49;;;;;;;;;;;36.80;94.30;;;;;;5015735;28;19918;-61
2023/09/08 12:09:16;;;;;;;;;;;36.70;94.10;;;;;;5002813;28;20048;-60
2023/09/08 12:11:42;;;;;;;;;;;36.80;94.00;;;;;;4995837;28;19922;-60
2023/09/08 12:14:12;;;;;;;;;;;36.60;93.60;;;;;;4995993;28;20335;-60
2023/09/08 12:16:38;;;;;;;;;;;36.70;94.90;;;;;;4995701;28;19933;-60
2023/09/08 12:19:03;;;;;;;;;;;36.70;95.50;;;;;;4995758;28;19918;-60
2023/09/08 12:21:31;;;;;;;;;;;36.20;93.70;;;;;;4995759;28;19941;-60
2023/09/08 12:23:57;;;;;;;;;;;36.10;93.90;;;;;;4995627;28;20013;-59
2023/09/08 12:26:24;;;;;;;;;;;35.80;93.90;;;;;;4995368;28;20000;-59
2023/09/08 12:28:50;;;;;;;;;;;35.30;93.60;;;;;;4995925;28;19917;-60
2023/09/08 12:31:17;;;;;;;;;;;35.20;94.20;;;;;;4995565;28;19918;-61
2023/09/08 12:33:43;;;;;;;;;;;35.20;94.50;;;;;;4994235;28;20001;-60
2023/09/08 12:36:13;;;;;;;;;;;35.00;94.20;;;;;;4995228;28;20398;-61
2023/09/08 12:38:38;;;;;;;;;;;34.90;94.70;;;;;;4995033;28;19921;-61
2023/09/08 12:41:04;;;;;;;;;;;34.90;95.70;;;;;;5006806;28;19921;-61
2023/09/08 12:43:29;;;;;;;;;;;34.80;93.90;;;;;;5015004;28;19956;-61
2023/09/08 12:45:56;;;;;;;;;;;34.60;94.40;;;;;;4997229;28;20295;-61
2023/09/08 12:48:21;;;;;;;;;;;34.80;95.90;;;;;;5014767;28;20040;-60
2023/09/08 12:50:48;;;;;;;;;;;34.70;94.30;;;;;;5013962;28;20439;-60
2023/09/08 12:53:14;;;;;;;;;;;33.80;93.50;;;;;;5014841;28;19924;-61
2023/09/08 12:55:40;;;;;;;;;;;33.50;94.00;;;;;;5014680;28;19917;-61
2023/09/08 12:58:05;;;;;;;;;;;33.60;94.00;;;;;;5014907;28;20376;-60
2023/09/08 13:00:31;;;;;;;;;;;33.50;95.80;;;;;;5014654;28;19918;-60
2023/09/08 13:02:56;;;;;;;;;;;33.60;96.20;;;;;;5014886;28;19921;-61
2023/09/08 13:05:22;;;;;;;;;;;33.70;94.90;;;;;;5014638;28;20433;-61
2023/09/08 13:07:47;;;;;;;;;;;33.50;96.10;;;;;;5014449;28;20004;-60
2023/09/08 13:10:13;;;;;;;;;;;33.50;95.60;;;;;;5014146;28;19922;-61
2023/09/08 13:12:39;;;;;;;;;;;33.20;95.30;;;;;;5014404;28;19917;-62
2023/09/08 13:15:05;;;;;;;;;;;33.20;95.30;;;;;;5014430;28;20008;-61
2023/09/08 13:17:30;;;;;;;;;;;33.10;95.20;;;;;;5014024;28;19929;-61
2023/09/08 13:19:56;;;;;;;;;;;32.90;95.20;;;;;;5014118;28;19921;-61
2023/09/08 13:22:22;;;;;;;;;;;32.90;95.30;;;;;;5013887;28;19918;-60
2023/09/08 13:24:47;;;;;;;;;;;32.80;95.20;;;;;;5014267;28;19921;-61
2023/09/08 13:27:15;;;;;;;;;;;32.90;95.90;;;;;;5014038;28;19918;-61
2023/09/08 13:29:40;;;;;;;;;;;32.80;95.70;;;;;;5014082;28;19924;-61
2023/09/08 13:32:06;;;;;;;;;;;32.80;96.80;;;;;;5014162;28;19917;-60
2023/09/08 13:34:32;;;;;;;;;;;32.70;95.50;;;;;;5013799;28;19917;-60
2023/09/08 13:36:58;;;;;;;;;;;32.70;95.80;;;;;;5013837;28;19929;-60
2023/09/08 13:39:23;;;;;;;;;;;32.50;95.10;;;;;;5002398;28;20060;-61
2023/09/08 13:41:55;;;;;;;;;;;32.50;96.50;;;;;;5011595;28;19979;-60
2023/09/08 13:44:22;;;;;;;;;;;32.50;96.80;;;;;;5013862;28;19963;-62
2023/09/08 13:46:48;;;;;;;;;;;32.30;94.50;;;;;;5003072;28;19977;-62
2023/09/08 13:49:14;;;;;;;;;;;32.30;94.50;;;;;;4994061;28;19924;-60
2023/09/08 13:51:39;;;;;;;;;;;32.30;96.40;;;;;;4994212;28;19917;-61
2023/09/08 13:54:05;;;;;;;;;;;32.30;96.70;;;;;;4994064;28;19969;-61
2023/09/08 13:56:31;;;;;;;;;;;32.20;94.90;;;;;;4994068;28;20295;-61
2023/09/08 13:58:56;;;;;;;;;;;31.90;94.50;;;;;;4994052;28;19922;-61
2023/09/08 14:01:22;;;;;;;;;;;32.00;95.70;;;;;;4992919;28;19922;-61
2023/09/08 14:03:51;;;;;;;;;;;31.90;95.60;;;;;;4993725;28;19930;-62
2023/09/08 14:06:17;;;;;;;;;;;32.00;96.20;;;;;;4994150;28;19932;-60
2023/09/08 14:08:43;;;;;;;;;;;31.90;96.60;;;;;;4993995;28;19963;-61
2023/09/08 14:11:08;;;;;;;;;;;31.90;95.80;;;;;;4993459;28;19961;-60